sensor_id;sensor_type;location;lat;lon;timestamp;P1;durP1;ratioP1;P2;durP2;ratioP2
5662;SDS011;2854;42.692;23.364;2022-11-15T00:02:04;52.90;;;24.63;;
5662;SDS011;2854;42.692;23.364;2022-11-15T00:04:30;50.53;;;23.20;;
5662;SDS011;2854;42.692;23.364;2022-11-15T00:06:55;65.03;;;25.70;;
5662;SDS011;2854;42.692;23.364;2022-11-15T00:09:20;52.30;;;23.50;;
5662;SDS011;2854;42.692;23.364;2022-11-15T00:11:45;48.67;;;22.93;;
5662;SDS011;2854;42.692;23.364;2022-11-15T00:14:11;50.53;;;22.40;;
5662;SDS011;2854;42.692;23.364;2022-11-15T00:16:36;54.53;;;22.70;;
5662;SDS011;2854;42.692;23.364;2022-11-15T00:19:01;41.77;;;21.30;;
5662;SDS011;2854;42.692;23.364;2022-11-15T00:21:27;40.00;;;20.23;;
5662;SDS011;2854;42.692;23.364;2022-11-15T00:23:52;59.77;;;16.33;;
5662;SDS011;2854;42.692;23.364;2022-11-15T00:26:17;32.90;;;17.37;;
5662;SDS011;2854;42.692;23.364;2022-11-15T00:28:43;44.13;;;17.43;;
5662;SDS011;2854;42.692;23.364;2022-11-15T00:31:10;41.70;;;17.90;;
5662;SDS011;2854;42.692;23.364;2022-11-15T00:33:36;32.37;;;16.30;;
5662;SDS011;2854;42.692;23.364;2022-11-15T00:36:05;32.97;;;17.17;;
5662;SDS011;2854;42.692;23.364;2022-11-15T00:38:34;32.53;;;17.77;;
5662;SDS011;2854;42.692;23.364;2022-11-15T00:41:00;34.50;;;15.60;;
5662;SDS011;2854;42.692;23.364;2022-11-15T00:43:25;39.07;;;19.33;;
5662;SDS011;2854;42.692;23.364;2022-11-15T00:45:50;42.67;;;17.13;;
5662;SDS011;2854;42.692;23.364;2022-11-15T00:48:16;31.20;;;15.60;;
5662;SDS011;2854;42.692;23.364;2022-11-15T00:50:41;34.60;;;16.03;;
5662;SDS011;2854;42.692;23.364;2022-11-15T00:53:06;37.90;;;16.77;;
5662;SDS011;2854;42.692;23.364;2022-11-15T00:55:32;49.53;;;16.90;;
5662;SDS011;2854;42.692;23.364;2022-11-15T00:57:57;28.97;;;17.13;;
5662;SDS011;2854;42.692;23.364;2022-11-15T01:00:23;35.07;;;18.80;;
5662;SDS011;2854;42.692;23.364;2022-11-15T01:02:48;41.97;;;18.40;;
5662;SDS011;2854;42.692;23.364;2022-11-15T01:05:13;28.77;;;16.77;;
5662;SDS011;2854;42.692;23.364;2022-11-15T01:07:39;51.90;;;19.73;;
5662;SDS011;2854;42.692;23.364;2022-11-15T01:10:04;45.50;;;19.93;;
5662;SDS011;2854;42.692;23.364;2022-11-15T01:12:30;33.37;;;18.63;;
5662;SDS011;2854;42.692;23.364;2022-11-15T01:14:55;29.87;;;17.97;;
5662;SDS011;2854;42.692;23.364;2022-11-15T01:17:20;43.43;;;17.43;;
5662;SDS011;2854;42.692;23.364;2022-11-15T01:19:45;44.60;;;19.70;;
5662;SDS011;2854;42.692;23.364;2022-11-15T01:22:11;36.73;;;16.87;;
5662;SDS011;2854;42.692;23.364;2022-11-15T01:24:36;33.57;;;16.27;;
5662;SDS011;2854;42.692;23.364;2022-11-15T01:27:01;31.57;;;17.97;;
5662;SDS011;2854;42.692;23.364;2022-11-15T01:29:26;51.93;;;20.33;;
5662;SDS011;2854;42.692;23.364;2022-11-15T01:31:52;36.33;;;16.00;;
5662;SDS011;2854;42.692;23.364;2022-11-15T01:34:18;35.80;;;16.40;;
5662;SDS011;2854;42.692;23.364;2022-11-15T01:36:43;40.27;;;16.60;;
5662;SDS011;2854;42.692;23.364;2022-11-15T01:39:08;34.23;;;16.20;;
5662;SDS011;2854;42.692;23.364;2022-11-15T01:41:33;29.63;;;16.20;;
5662;SDS011;2854;42.692;23.364;2022-11-15T01:46:44;37.23;;;18.40;;
5662;SDS011;2854;42.692;23.364;2022-11-15T01:49:12;43.00;;;21.07;;
5662;SDS011;2854;42.692;23.364;2022-11-15T01:51:38;44.03;;;20.30;;
5662;SDS011;2854;42.692;23.364;2022-11-15T01:54:08;42.67;;;21.03;;
5662;SDS011;2854;42.692;23.364;2022-11-15T01:56:36;58.43;;;24.67;;
5662;SDS011;2854;42.692;23.364;2022-11-15T01:59:02;56.57;;;27.90;;
5662;SDS011;2854;42.692;23.364;2022-11-15T02:01:29;67.63;;;29.80;;
5662;SDS011;2854;42.692;23.364;2022-11-15T02:03:59;65.70;;;30.50;;
5662;SDS011;2854;42.692;23.364;2022-11-15T02:06:25;66.10;;;28.70;;
5662;SDS011;2854;42.692;23.364;2022-11-15T02:08:51;52.27;;;25.53;;
5662;SDS011;2854;42.692;23.364;2022-11-15T02:11:16;56.20;;;25.93;;
5662;SDS011;2854;42.692;23.364;2022-11-15T02:13:41;51.17;;;27.97;;
5662;SDS011;2854;42.692;23.364;2022-11-15T02:19:06;79.53;;;29.97;;
5662;SDS011;2854;42.692;23.364;2022-11-15T02:21:39;79.13;;;28.93;;
5662;SDS011;2854;42.692;23.364;2022-11-15T02:26:52;74.17;;;32.77;;
5662;SDS011;2854;42.692;23.364;2022-11-15T02:30:00;84.50;;;34.30;;
5662;SDS011;2854;42.692;23.364;2022-11-15T02:32:26;74.27;;;36.23;;
5662;SDS011;2854;42.692;23.364;2022-11-15T02:37:36;63.90;;;29.47;;
5662;SDS011;2854;42.692;23.364;2022-11-15T02:42:33;75.67;;;35.00;;
5662;SDS011;2854;42.692;23.364;2022-11-15T02:45:21;68.53;;;29.50;;
5662;SDS011;2854;42.692;23.364;2022-11-15T02:47:48;66.77;;;24.17;;
5662;SDS011;2854;42.692;23.364;2022-11-15T02:50:17;44.17;;;20.80;;
5662;SDS011;2854;42.692;23.364;2022-11-15T02:52:47;43.43;;;18.23;;
5662;SDS011;2854;42.692;23.364;2022-11-15T02:55:26;51.10;;;17.70;;
5662;SDS011;2854;42.692;23.364;2022-11-15T02:57:52;36.10;;;16.93;;
5662;SDS011;2854;42.692;23.364;2022-11-15T03:00:19;57.33;;;22.33;;
5662;SDS011;2854;42.692;23.364;2022-11-15T03:07:50;43.00;;;21.77;;
5662;SDS011;2854;42.692;23.364;2022-11-15T03:15:24;51.23;;;21.83;;
5662;SDS011;2854;42.692;23.364;2022-11-15T03:18:00;40.20;;;20.93;;
5662;SDS011;2854;42.692;23.364;2022-11-15T03:20:26;56.07;;;19.73;;
5662;SDS011;2854;42.692;23.364;2022-11-15T03:22:53;57.93;;;21.40;;
5662;SDS011;2854;42.692;23.364;2022-11-15T03:25:20;43.00;;;19.43;;
5662;SDS011;2854;42.692;23.364;2022-11-15T03:27:48;50.60;;;19.10;;
5662;SDS011;2854;42.692;23.364;2022-11-15T03:30:14;42.20;;;20.20;;
5662;SDS011;2854;42.692;23.364;2022-11-15T03:32:45;53.70;;;21.00;;
5662;SDS011;2854;42.692;23.364;2022-11-15T03:35:12;77.87;;;19.17;;
5662;SDS011;2854;42.692;23.364;2022-11-15T03:40:07;51.33;;;19.03;;
5662;SDS011;2854;42.692;23.364;2022-11-15T03:42:42;33.13;;;17.07;;
5662;SDS011;2854;42.692;23.364;2022-11-15T03:45:12;42.23;;;17.67;;
5662;SDS011;2854;42.692;23.364;2022-11-15T03:47:39;33.57;;;18.20;;
5662;SDS011;2854;42.692;23.364;2022-11-15T03:50:17;37.90;;;18.90;;
5662;SDS011;2854;42.692;23.364;2022-11-15T03:52:43;39.30;;;17.50;;
5662;SDS011;2854;42.692;23.364;2022-11-15T03:55:10;46.70;;;20.27;;
5662;SDS011;2854;42.692;23.364;2022-11-15T03:57:36;49.27;;;19.97;;
5662;SDS011;2854;42.692;23.364;2022-11-15T04:00:02;52.20;;;22.30;;
5662;SDS011;2854;42.692;23.364;2022-11-15T04:02:28;68.43;;;22.10;;
5662;SDS011;2854;42.692;23.364;2022-11-15T04:04:53;44.57;;;21.50;;
5662;SDS011;2854;42.692;23.364;2022-11-15T04:07:18;49.63;;;21.80;;
5662;SDS011;2854;42.692;23.364;2022-11-15T04:09:44;36.30;;;18.00;;
5662;SDS011;2854;42.692;23.364;2022-11-15T04:15:08;41.50;;;21.00;;
5662;SDS011;2854;42.692;23.364;2022-11-15T04:20:03;39.17;;;18.87;;
5662;SDS011;2854;42.692;23.364;2022-11-15T04:22:47;34.10;;;16.57;;
5662;SDS011;2854;42.692;23.364;2022-11-15T04:25:31;24.10;;;12.97;;
5662;SDS011;2854;42.692;23.364;2022-11-15T04:27:56;31.63;;;14.30;;
5662;SDS011;2854;42.692;23.364;2022-11-15T04:30:22;27.27;;;17.93;;
5662;SDS011;2854;42.692;23.364;2022-11-15T04:32:47;35.60;;;16.37;;
5662;SDS011;2854;42.692;23.364;2022-11-15T04:35:12;28.07;;;13.33;;
5662;SDS011;2854;42.692;23.364;2022-11-15T04:37:37;26.53;;;15.70;;
5662;SDS011;2854;42.692;23.364;2022-11-15T04:40:03;29.83;;;13.57;;
5662;SDS011;2854;42.692;23.364;2022-11-15T04:42:28;34.03;;;16.40;;
5662;SDS011;2854;42.692;23.364;2022-11-15T04:44:53;26.43;;;15.37;;
5662;SDS011;2854;42.692;23.364;2022-11-15T04:47:18;25.20;;;14.57;;
5662;SDS011;2854;42.692;23.364;2022-11-15T04:49:44;22.50;;;14.17;;
5662;SDS011;2854;42.692;23.364;2022-11-15T04:52:09;31.33;;;16.30;;
5662;SDS011;2854;42.692;23.364;2022-11-15T04:54:34;27.63;;;15.10;;
5662;SDS011;2854;42.692;23.364;2022-11-15T04:56:59;27.13;;;11.67;;
5662;SDS011;2854;42.692;23.364;2022-11-15T04:59:25;41.93;;;14.57;;
5662;SDS011;2854;42.692;23.364;2022-11-15T05:01:50;23.97;;;11.87;;
5662;SDS011;2854;42.692;23.364;2022-11-15T05:04:15;29.57;;;13.37;;
5662;SDS011;2854;42.692;23.364;2022-11-15T05:06:47;29.33;;;13.60;;
5662;SDS011;2854;42.692;23.364;2022-11-15T05:09:13;34.30;;;17.07;;
5662;SDS011;2854;42.692;23.364;2022-11-15T05:11:39;30.73;;;15.67;;
5662;SDS011;2854;42.692;23.364;2022-11-15T05:14:04;33.60;;;16.00;;
5662;SDS011;2854;42.692;23.364;2022-11-15T05:16:29;29.57;;;15.03;;
5662;SDS011;2854;42.692;23.364;2022-11-15T05:18:54;24.80;;;14.90;;
5662;SDS011;2854;42.692;23.364;2022-11-15T05:21:20;28.97;;;16.33;;
5662;SDS011;2854;42.692;23.364;2022-11-15T05:23:45;40.37;;;17.47;;
5662;SDS011;2854;42.692;23.364;2022-11-15T05:26:11;31.50;;;14.00;;
5662;SDS011;2854;42.692;23.364;2022-11-15T05:28:36;24.80;;;14.60;;
5662;SDS011;2854;42.692;23.364;2022-11-15T05:31:05;28.20;;;14.00;;
5662;SDS011;2854;42.692;23.364;2022-11-15T05:33:31;29.53;;;14.83;;
5662;SDS011;2854;42.692;23.364;2022-11-15T05:38:35;32.03;;;17.73;;
5662;SDS011;2854;42.692;23.364;2022-11-15T05:41:00;33.17;;;18.30;;
5662;SDS011;2854;42.692;23.364;2022-11-15T05:43:27;25.43;;;17.43;;
5662;SDS011;2854;42.692;23.364;2022-11-15T05:45:53;26.50;;;16.23;;
5662;SDS011;2854;42.692;23.364;2022-11-15T05:48:18;27.10;;;15.50;;
5662;SDS011;2854;42.692;23.364;2022-11-15T05:50:45;23.70;;;13.20;;
5662;SDS011;2854;42.692;23.364;2022-11-15T05:53:11;28.87;;;13.90;;
5662;SDS011;2854;42.692;23.364;2022-11-15T05:55:38;23.87;;;12.23;;
5662;SDS011;2854;42.692;23.364;2022-11-15T05:58:03;17.13;;;10.80;;
5662;SDS011;2854;42.692;23.364;2022-11-15T06:00:29;31.97;;;12.93;;
5662;SDS011;2854;42.692;23.364;2022-11-15T06:02:54;20.87;;;11.67;;
5662;SDS011;2854;42.692;23.364;2022-11-15T06:05:19;20.80;;;12.90;;
5662;SDS011;2854;42.692;23.364;2022-11-15T06:07:45;19.70;;;10.70;;
5662;SDS011;2854;42.692;23.364;2022-11-15T06:10:10;21.50;;;10.13;;
5662;SDS011;2854;42.692;23.364;2022-11-15T06:12:35;17.40;;;8.80;;
5662;SDS011;2854;42.692;23.364;2022-11-15T06:15:00;22.23;;;9.93;;
5662;SDS011;2854;42.692;23.364;2022-11-15T06:17:26;14.53;;;8.40;;
5662;SDS011;2854;42.692;23.364;2022-11-15T06:19:51;11.57;;;7.57;;
5662;SDS011;2854;42.692;23.364;2022-11-15T06:22:16;13.23;;;8.57;;
5662;SDS011;2854;42.692;23.364;2022-11-15T06:24:41;19.13;;;8.90;;
5662;SDS011;2854;42.692;23.364;2022-11-15T06:27:08;17.63;;;9.10;;
5662;SDS011;2854;42.692;23.364;2022-11-15T06:29:34;16.30;;;9.60;;
5662;SDS011;2854;42.692;23.364;2022-11-15T06:31:59;24.03;;;9.80;;
5662;SDS011;2854;42.692;23.364;2022-11-15T06:34:24;22.00;;;8.53;;
5662;SDS011;2854;42.692;23.364;2022-11-15T06:36:49;19.87;;;7.30;;
5662;SDS011;2854;42.692;23.364;2022-11-15T06:39:15;19.70;;;8.53;;
5662;SDS011;2854;42.692;23.364;2022-11-15T06:41:40;13.30;;;6.63;;
5662;SDS011;2854;42.692;23.364;2022-11-15T06:44:05;17.40;;;8.80;;
5662;SDS011;2854;42.692;23.364;2022-11-15T06:46:30;10.63;;;6.63;;
5662;SDS011;2854;42.692;23.364;2022-11-15T06:48:56;20.27;;;9.37;;
5662;SDS011;2854;42.692;23.364;2022-11-15T06:51:21;12.83;;;8.00;;
5662;SDS011;2854;42.692;23.364;2022-11-15T06:53:47;22.83;;;9.07;;
5662;SDS011;2854;42.692;23.364;2022-11-15T06:56:13;14.57;;;9.40;;
5662;SDS011;2854;42.692;23.364;2022-11-15T06:58:38;15.57;;;9.67;;
5662;SDS011;2854;42.692;23.364;2022-11-15T07:01:04;18.17;;;8.10;;
5662;SDS011;2854;42.692;23.364;2022-11-15T07:03:30;17.63;;;8.53;;
5662;SDS011;2854;42.692;23.364;2022-11-15T07:05:56;26.47;;;9.97;;
5662;SDS011;2854;42.692;23.364;2022-11-15T07:08:22;17.03;;;8.73;;
5662;SDS011;2854;42.692;23.364;2022-11-15T07:10:48;19.27;;;9.47;;
5662;SDS011;2854;42.692;23.364;2022-11-15T07:13:13;17.03;;;9.00;;
5662;SDS011;2854;42.692;23.364;2022-11-15T07:15:38;16.93;;;7.63;;
5662;SDS011;2854;42.692;23.364;2022-11-15T07:18:04;15.83;;;8.17;;
5662;SDS011;2854;42.692;23.364;2022-11-15T07:20:29;19.73;;;10.00;;
5662;SDS011;2854;42.692;23.364;2022-11-15T07:23:01;17.40;;;8.90;;
5662;SDS011;2854;42.692;23.364;2022-11-15T07:25:27;21.23;;;8.03;;
5662;SDS011;2854;42.692;23.364;2022-11-15T07:27:55;14.97;;;9.37;;
5662;SDS011;2854;42.692;23.364;2022-11-15T07:30:21;18.40;;;10.23;;
5662;SDS011;2854;42.692;23.364;2022-11-15T07:32:46;24.30;;;10.40;;
5662;SDS011;2854;42.692;23.364;2022-11-15T07:35:12;22.80;;;10.33;;
5662;SDS011;2854;42.692;23.364;2022-11-15T07:37:37;23.60;;;10.17;;
5662;SDS011;2854;42.692;23.364;2022-11-15T07:40:02;25.37;;;12.40;;
5662;SDS011;2854;42.692;23.364;2022-11-15T07:42:27;27.63;;;12.30;;
5662;SDS011;2854;42.692;23.364;2022-11-15T07:45:14;20.13;;;11.90;;
5662;SDS011;2854;42.692;23.364;2022-11-15T07:47:39;30.37;;;16.20;;
5662;SDS011;2854;42.692;23.364;2022-11-15T07:50:05;27.90;;;12.63;;
5662;SDS011;2854;42.692;23.364;2022-11-15T07:52:30;35.20;;;12.40;;
5662;SDS011;2854;42.692;23.364;2022-11-15T07:54:55;28.07;;;11.83;;
5662;SDS011;2854;42.692;23.364;2022-11-15T07:57:20;23.47;;;11.13;;
5662;SDS011;2854;42.692;23.364;2022-11-15T07:59:46;18.10;;;10.07;;
5662;SDS011;2854;42.692;23.364;2022-11-15T08:02:11;24.17;;;9.23;;
5662;SDS011;2854;42.692;23.364;2022-11-15T08:04:36;28.37;;;11.00;;
5662;SDS011;2854;42.692;23.364;2022-11-15T08:07:01;24.00;;;11.53;;
5662;SDS011;2854;42.692;23.364;2022-11-15T08:09:27;27.87;;;12.90;;
5662;SDS011;2854;42.692;23.364;2022-11-15T08:11:52;19.63;;;9.47;;
5662;SDS011;2854;42.692;23.364;2022-11-15T08:14:17;29.40;;;13.07;;
5662;SDS011;2854;42.692;23.364;2022-11-15T08:16:42;29.80;;;14.17;;
5662;SDS011;2854;42.692;23.364;2022-11-15T08:19:08;26.37;;;14.13;;
5662;SDS011;2854;42.692;23.364;2022-11-15T08:21:33;30.10;;;12.17;;
5662;SDS011;2854;42.692;23.364;2022-11-15T08:23:58;34.87;;;13.60;;
5662;SDS011;2854;42.692;23.364;2022-11-15T08:26:23;24.57;;;12.73;;
5662;SDS011;2854;42.692;23.364;2022-11-15T08:28:51;24.70;;;12.67;;
5662;SDS011;2854;42.692;23.364;2022-11-15T08:31:17;38.20;;;13.80;;
5662;SDS011;2854;42.692;23.364;2022-11-15T08:33:43;24.93;;;11.30;;
5662;SDS011;2854;42.692;23.364;2022-11-15T08:36:10;29.77;;;12.80;;
5662;SDS011;2854;42.692;23.364;2022-11-15T08:38:36;38.00;;;11.90;;
5662;SDS011;2854;42.692;23.364;2022-11-15T08:41:02;34.83;;;13.47;;
5662;SDS011;2854;42.692;23.364;2022-11-15T08:43:28;26.27;;;13.93;;
5662;SDS011;2854;42.692;23.364;2022-11-15T08:45:55;30.50;;;14.83;;
5662;SDS011;2854;42.692;23.364;2022-11-15T08:48:20;22.00;;;10.93;;
5662;SDS011;2854;42.692;23.364;2022-11-15T08:50:46;30.07;;;11.87;;
5662;SDS011;2854;42.692;23.364;2022-11-15T08:53:12;27.77;;;12.30;;
5662;SDS011;2854;42.692;23.364;2022-11-15T08:55:37;32.50;;;14.17;;
5662;SDS011;2854;42.692;23.364;2022-11-15T08:58:03;39.83;;;14.57;;
5662;SDS011;2854;42.692;23.364;2022-11-15T09:00:29;36.03;;;14.73;;
5662;SDS011;2854;42.692;23.364;2022-11-15T09:02:54;34.70;;;15.67;;
5662;SDS011;2854;42.692;23.364;2022-11-15T09:05:19;35.40;;;13.80;;
5662;SDS011;2854;42.692;23.364;2022-11-15T09:07:44;35.43;;;16.73;;
5662;SDS011;2854;42.692;23.364;2022-11-15T09:10:10;34.80;;;14.13;;
5662;SDS011;2854;42.692;23.364;2022-11-15T09:12:35;45.90;;;14.73;;
5662;SDS011;2854;42.692;23.364;2022-11-15T09:15:00;35.27;;;15.10;;
5662;SDS011;2854;42.692;23.364;2022-11-15T09:17:25;24.83;;;14.37;;
5662;SDS011;2854;42.692;23.364;2022-11-15T09:19:51;35.73;;;16.83;;
5662;SDS011;2854;42.692;23.364;2022-11-15T09:22:16;28.90;;;14.20;;
5662;SDS011;2854;42.692;23.364;2022-11-15T09:24:41;38.57;;;14.67;;
5662;SDS011;2854;42.692;23.364;2022-11-15T09:27:07;34.03;;;16.53;;
5662;SDS011;2854;42.692;23.364;2022-11-15T09:29:32;34.20;;;15.20;;
5662;SDS011;2854;42.692;23.364;2022-11-15T09:31:57;30.50;;;14.67;;
5662;SDS011;2854;42.692;23.364;2022-11-15T09:34:23;49.93;;;19.07;;
5662;SDS011;2854;42.692;23.364;2022-11-15T09:36:48;41.70;;;16.43;;
5662;SDS011;2854;42.692;23.364;2022-11-15T09:39:13;56.93;;;19.30;;
5662;SDS011;2854;42.692;23.364;2022-11-15T09:44:10;33.73;;;14.80;;
5662;SDS011;2854;42.692;23.364;2022-11-15T09:49:12;51.17;;;18.60;;
5662;SDS011;2854;42.692;23.364;2022-11-15T09:51:43;41.37;;;15.67;;
5662;SDS011;2854;42.692;23.364;2022-11-15T09:54:31;45.13;;;18.37;;
5662;SDS011;2854;42.692;23.364;2022-11-15T09:57:09;46.63;;;17.10;;
5662;SDS011;2854;42.692;23.364;2022-11-15T10:04:46;60.43;;;19.67;;
5662;SDS011;2854;42.692;23.364;2022-11-15T10:07:22;52.80;;;18.40;;
5662;SDS011;2854;42.692;23.364;2022-11-15T10:12:15;55.13;;;21.97;;
5662;SDS011;2854;42.692;23.364;2022-11-15T10:14:41;37.37;;;16.37;;
5662;SDS011;2854;42.692;23.364;2022-11-15T10:19:42;43.10;;;17.50;;
5662;SDS011;2854;42.692;23.364;2022-11-15T10:24:41;57.17;;;17.50;;
5662;SDS011;2854;42.692;23.364;2022-11-15T10:27:11;43.23;;;19.80;;
5662;SDS011;2854;42.692;23.364;2022-11-15T10:29:40;52.93;;;21.13;;
5662;SDS011;2854;42.692;23.364;2022-11-15T10:32:07;43.67;;;18.40;;
5662;SDS011;2854;42.692;23.364;2022-11-15T10:34:34;43.90;;;19.70;;
5662;SDS011;2854;42.692;23.364;2022-11-15T10:37:00;59.23;;;23.57;;
5662;SDS011;2854;42.692;23.364;2022-11-15T10:39:27;55.60;;;19.97;;
5662;SDS011;2854;42.692;23.364;2022-11-15T10:41:52;65.50;;;25.47;;
5662;SDS011;2854;42.692;23.364;2022-11-15T10:47:20;52.63;;;21.63;;
5662;SDS011;2854;42.692;23.364;2022-11-15T10:49:32;56.47;;;21.80;;
5662;SDS011;2854;42.692;23.364;2022-11-15T10:54:24;45.00;;;17.80;;
5662;SDS011;2854;42.692;23.364;2022-11-15T10:56:50;35.70;;;18.53;;
5662;SDS011;2854;42.692;23.364;2022-11-15T10:59:18;43.10;;;18.43;;
5662;SDS011;2854;42.692;23.364;2022-11-15T11:01:46;52.73;;;16.53;;
5662;SDS011;2854;42.692;23.364;2022-11-15T11:04:11;46.67;;;17.30;;
5662;SDS011;2854;42.692;23.364;2022-11-15T11:06:59;39.73;;;17.20;;
5662;SDS011;2854;42.692;23.364;2022-11-15T11:09:39;31.53;;;14.73;;
5662;SDS011;2854;42.692;23.364;2022-11-15T11:12:10;39.13;;;16.80;;
5662;SDS011;2854;42.692;23.364;2022-11-15T11:14:37;32.83;;;15.20;;
5662;SDS011;2854;42.692;23.364;2022-11-15T11:19:46;35.67;;;15.90;;
5662;SDS011;2854;42.692;23.364;2022-11-15T11:22:23;39.80;;;18.67;;
5662;SDS011;2854;42.692;23.364;2022-11-15T11:35:08;35.50;;;15.70;;
5662;SDS011;2854;42.692;23.364;2022-11-15T11:37:37;44.00;;;18.40;;
5662;SDS011;2854;42.692;23.364;2022-11-15T11:47:39;26.73;;;13.43;;
5662;SDS011;2854;42.692;23.364;2022-11-15T11:50:13;48.70;;;19.53;;
5662;SDS011;2854;42.692;23.364;2022-11-15T11:55:21;34.43;;;14.57;;
5662;SDS011;2854;42.692;23.364;2022-11-15T11:57:56;29.17;;;16.30;;
5662;SDS011;2854;42.692;23.364;2022-11-15T12:00:25;27.73;;;14.37;;
5662;SDS011;2854;42.692;23.364;2022-11-15T12:03:07;32.30;;;15.00;;
5662;SDS011;2854;42.692;23.364;2022-11-15T12:05:49;37.17;;;15.50;;
5662;SDS011;2854;42.692;23.364;2022-11-15T12:08:26;24.33;;;14.07;;
5662;SDS011;2854;42.692;23.364;2022-11-15T12:11:35;39.17;;;15.63;;
5662;SDS011;2854;42.692;23.364;2022-11-15T12:13:41;41.00;;;14.90;;
5662;SDS011;2854;42.692;23.364;2022-11-15T12:16:10;39.73;;;16.30;;
5662;SDS011;2854;42.692;23.364;2022-11-15T12:18:37;37.03;;;15.67;;
5662;SDS011;2854;42.692;23.364;2022-11-15T12:21:07;49.23;;;15.97;;
5662;SDS011;2854;42.692;23.364;2022-11-15T12:23:44;53.90;;;17.13;;
5662;SDS011;2854;42.692;23.364;2022-11-15T12:26:14;39.67;;;15.67;;
5662;SDS011;2854;42.692;23.364;2022-11-15T12:28:52;31.30;;;15.57;;
5662;SDS011;2854;42.692;23.364;2022-11-15T12:34:00;36.60;;;16.60;;
5662;SDS011;2854;42.692;23.364;2022-11-15T12:36:30;37.20;;;18.00;;
5662;SDS011;2854;42.692;23.364;2022-11-15T12:38:58;37.77;;;18.10;;
5662;SDS011;2854;42.692;23.364;2022-11-15T12:41:27;62.07;;;19.60;;
5662;SDS011;2854;42.692;23.364;2022-11-15T12:43:53;39.80;;;16.17;;
5662;SDS011;2854;42.692;23.364;2022-11-15T12:48:57;40.43;;;18.50;;
5662;SDS011;2854;42.692;23.364;2022-11-15T12:52:03;36.97;;;18.63;;
5662;SDS011;2854;42.692;23.364;2022-11-15T12:57:35;36.57;;;18.03;;
5662;SDS011;2854;42.692;23.364;2022-11-15T13:02:24;51.83;;;20.10;;
5662;SDS011;2854;42.692;23.364;2022-11-15T13:04:50;49.47;;;20.20;;
5662;SDS011;2854;42.692;23.364;2022-11-15T13:10:00;41.70;;;19.23;;
5662;SDS011;2854;42.692;23.364;2022-11-15T13:17:19;42.03;;;19.73;;
5662;SDS011;2854;42.692;23.364;2022-11-15T13:20:11;38.17;;;19.10;;
5662;SDS011;2854;42.692;23.364;2022-11-15T13:35:41;46.23;;;21.10;;
5662;SDS011;2854;42.692;23.364;2022-11-15T13:38:17;38.90;;;18.07;;
5662;SDS011;2854;42.692;23.364;2022-11-15T13:40:43;41.37;;;18.43;;
5662;SDS011;2854;42.692;23.364;2022-11-15T13:43:41;48.30;;;18.13;;
5662;SDS011;2854;42.692;23.364;2022-11-15T13:48:37;40.13;;;18.20;;
5662;SDS011;2854;42.692;23.364;2022-11-15T13:51:03;41.77;;;18.63;;
5662;SDS011;2854;42.692;23.364;2022-11-15T13:53:30;56.50;;;20.50;;
5662;SDS011;2854;42.692;23.364;2022-11-15T13:55:56;39.97;;;17.93;;
5662;SDS011;2854;42.692;23.364;2022-11-15T13:58:22;41.20;;;18.70;;
5662;SDS011;2854;42.692;23.364;2022-11-15T14:00:47;43.53;;;18.70;;
5662;SDS011;2854;42.692;23.364;2022-11-15T14:03:21;42.33;;;19.93;;
5662;SDS011;2854;42.692;23.364;2022-11-15T14:09:14;40.57;;;19.40;;
5662;SDS011;2854;42.692;23.364;2022-11-15T14:11:54;42.13;;;19.07;;
5662;SDS011;2854;42.692;23.364;2022-11-15T14:14:21;43.77;;;22.10;;
5662;SDS011;2854;42.692;23.364;2022-11-15T14:16:48;34.27;;;17.63;;
5662;SDS011;2854;42.692;23.364;2022-11-15T14:24:30;37.53;;;16.80;;
5662;SDS011;2854;42.692;23.364;2022-11-15T14:26:56;45.47;;;18.50;;
5662;SDS011;2854;42.692;23.364;2022-11-15T14:29:24;35.03;;;15.77;;
5662;SDS011;2854;42.692;23.364;2022-11-15T14:31:50;37.73;;;18.30;;
5662;SDS011;2854;42.692;23.364;2022-11-15T14:34:15;37.00;;;17.30;;
5662;SDS011;2854;42.692;23.364;2022-11-15T14:36:41;36.20;;;17.50;;
5662;SDS011;2854;42.692;23.364;2022-11-15T14:39:06;46.53;;;18.00;;
5662;SDS011;2854;42.692;23.364;2022-11-15T14:41:34;36.63;;;18.17;;
5662;SDS011;2854;42.692;23.364;2022-11-15T14:44:03;42.43;;;19.63;;
5662;SDS011;2854;42.692;23.364;2022-11-15T14:46:28;37.13;;;18.67;;
5662;SDS011;2854;42.692;23.364;2022-11-15T14:48:54;49.47;;;21.10;;
5662;SDS011;2854;42.692;23.364;2022-11-15T14:51:19;41.10;;;18.60;;
5662;SDS011;2854;42.692;23.364;2022-11-15T14:53:45;48.67;;;23.07;;
5662;SDS011;2854;42.692;23.364;2022-11-15T14:56:10;39.00;;;21.23;;
5662;SDS011;2854;42.692;23.364;2022-11-15T14:58:35;56.50;;;19.57;;
5662;SDS011;2854;42.692;23.364;2022-11-15T15:01:20;44.50;;;22.33;;
5662;SDS011;2854;42.692;23.364;2022-11-15T15:03:46;40.60;;;18.97;;
5662;SDS011;2854;42.692;23.364;2022-11-15T15:06:11;43.77;;;20.20;;
5662;SDS011;2854;42.692;23.364;2022-11-15T15:08:38;45.93;;;20.97;;
5662;SDS011;2854;42.692;23.364;2022-11-15T15:11:07;46.53;;;19.13;;
5662;SDS011;2854;42.692;23.364;2022-11-15T15:13:34;50.93;;;23.90;;
5662;SDS011;2854;42.692;23.364;2022-11-15T15:15:59;47.23;;;22.63;;
5662;SDS011;2854;42.692;23.364;2022-11-15T15:18:24;46.67;;;20.77;;
5662;SDS011;2854;42.692;23.364;2022-11-15T15:20:56;61.43;;;26.60;;
5662;SDS011;2854;42.692;23.364;2022-11-15T15:23:22;56.13;;;24.40;;
5662;SDS011;2854;42.692;23.364;2022-11-15T15:25:50;65.87;;;22.97;;
5662;SDS011;2854;42.692;23.364;2022-11-15T15:28:15;43.10;;;22.87;;
5662;SDS011;2854;42.692;23.364;2022-11-15T15:30:41;50.57;;;22.63;;
5662;SDS011;2854;42.692;23.364;2022-11-15T15:33:06;55.37;;;21.73;;
5662;SDS011;2854;42.692;23.364;2022-11-15T15:35:32;40.30;;;19.07;;
5662;SDS011;2854;42.692;23.364;2022-11-15T15:37:58;49.63;;;20.50;;
5662;SDS011;2854;42.692;23.364;2022-11-15T15:40:24;37.37;;;19.13;;
5662;SDS011;2854;42.692;23.364;2022-11-15T15:42:49;42.73;;;19.27;;
5662;SDS011;2854;42.692;23.364;2022-11-15T15:45:15;40.17;;;19.63;;
5662;SDS011;2854;42.692;23.364;2022-11-15T15:47:41;34.83;;;18.83;;
5662;SDS011;2854;42.692;23.364;2022-11-15T15:50:23;41.27;;;18.50;;
5662;SDS011;2854;42.692;23.364;2022-11-15T15:52:53;48.10;;;21.10;;
5662;SDS011;2854;42.692;23.364;2022-11-15T15:55:18;38.33;;;20.83;;
5662;SDS011;2854;42.692;23.364;2022-11-15T15:57:44;45.80;;;21.07;;
5662;SDS011;2854;42.692;23.364;2022-11-15T16:00:09;52.17;;;20.60;;
5662;SDS011;2854;42.692;23.364;2022-11-15T16:02:35;58.20;;;23.07;;
5662;SDS011;2854;42.692;23.364;2022-11-15T16:05:00;50.23;;;25.20;;
5662;SDS011;2854;42.692;23.364;2022-11-15T16:07:25;52.23;;;25.20;;
5662;SDS011;2854;42.692;23.364;2022-11-15T16:09:53;64.53;;;26.47;;
5662;SDS011;2854;42.692;23.364;2022-11-15T16:12:24;71.80;;;32.53;;
5662;SDS011;2854;42.692;23.364;2022-11-15T16:14:51;73.77;;;30.43;;
5662;SDS011;2854;42.692;23.364;2022-11-15T16:17:17;94.17;;;36.57;;
5662;SDS011;2854;42.692;23.364;2022-11-15T16:19:43;91.77;;;34.27;;
5662;SDS011;2854;42.692;23.364;2022-11-15T16:22:08;62.90;;;26.90;;
5662;SDS011;2854;42.692;23.364;2022-11-15T16:24:34;52.40;;;25.20;;
5662;SDS011;2854;42.692;23.364;2022-11-15T16:26:59;54.73;;;22.63;;
5662;SDS011;2854;42.692;23.364;2022-11-15T16:29:24;51.27;;;22.00;;
5662;SDS011;2854;42.692;23.364;2022-11-15T16:31:50;53.57;;;23.17;;
5662;SDS011;2854;42.692;23.364;2022-11-15T16:34:15;53.27;;;23.97;;
5662;SDS011;2854;42.692;23.364;2022-11-15T16:36:41;47.27;;;24.13;;
5662;SDS011;2854;42.692;23.364;2022-11-15T16:39:08;46.37;;;21.20;;
5662;SDS011;2854;42.692;23.364;2022-11-15T16:41:35;53.70;;;23.83;;